sensor_id;sensor_type;location;lat;lon;timestamp;pressure;altitude;pressure_sealevel;temperature;humidity
56604;BME280;42486;47.478;19.036;2023-03-26T00:02:10;99720.63;;;7.87;82.97
56604;BME280;42486;47.478;19.036;2023-03-26T00:05:13;99710.53;;;7.83;82.91
56604;BME280;42486;47.478;19.036;2023-03-26T00:08:16;99710.63;;;7.81;82.93
56604;BME280;42486;47.478;19.036;2023-03-26T00:11:19;99712.88;;;7.75;84.08
56604;BME280;42486;47.478;19.036;2023-03-26T00:14:23;99716.00;;;7.67;84.72
56604;BME280;42486;47.478;19.036;2023-03-26T00:17:28;99710.31;;;7.62;85.56
56604;BME280;42486;47.478;19.036;2023-03-26T00:20:31;99707.97;;;7.70;83.97
56604;BME280;42486;47.478;19.036;2023-03-26T00:23:34;99715.28;;;7.65;84.42
56604;BME280;42486;47.478;19.036;2023-03-26T00:26:37;99722.84;;;7.68;84.70
56604;BME280;42486;47.478;19.036;2023-03-26T00:29:42;99717.28;;;7.61;84.18
56604;BME280;42486;47.478;19.036;2023-03-26T00:32:44;99721.34;;;7.53;85.99
56604;BME280;42486;47.478;19.036;2023-03-26T00:35:55;99716.91;;;7.42;85.67
56604;BME280;42486;47.478;19.036;2023-03-26T00:39:00;99714.75;;;7.36;87.55
56604;BME280;42486;47.478;19.036;2023-03-26T00:42:06;99708.78;;;7.46;84.87
56604;BME280;42486;47.478;19.036;2023-03-26T00:45:09;99705.06;;;7.50;85.43
56604;BME280;42486;47.478;19.036;2023-03-26T00:48:13;99698.31;;;7.48;85.95
56604;BME280;42486;47.478;19.036;2023-03-26T00:51:16;99693.97;;;7.36;86.45
56604;BME280;42486;47.478;19.036;2023-03-26T00:54:19;99685.78;;;7.29;87.05
56604;BME280;42486;47.478;19.036;2023-03-26T00:57:22;99684.03;;;7.17;88.94
56604;BME280;42486;47.478;19.036;2023-03-26T01:00:46;99685.91;;;7.15;88.28
56604;BME280;42486;47.478;19.036;2023-03-26T01:03:50;99675.72;;;7.24;90.16
56604;BME280;42486;47.478;19.036;2023-03-26T01:07:10;99673.72;;;7.28;87.25
56604;BME280;42486;47.478;19.036;2023-03-26T01:10:14;99670.72;;;7.34;86.40
56604;BME280;42486;47.478;19.036;2023-03-26T01:13:20;99663.38;;;7.39;86.53
56604;BME280;42486;47.478;19.036;2023-03-26T01:22:45;99668.50;;;7.65;83.12
56604;BME280;42486;47.478;19.036;2023-03-26T01:25:53;99670.72;;;7.82;82.45
56604;BME280;42486;47.478;19.036;2023-03-26T01:28:59;99662.69;;;7.85;82.86
56604;BME280;42486;47.478;19.036;2023-03-26T01:38:42;99665.22;;;7.98;80.65
56604;BME280;42486;47.478;19.036;2023-03-26T01:41:53;99666.75;;;8.01;79.53
56604;BME280;42486;47.478;19.036;2023-03-26T01:45:12;99680.25;;;8.06;78.94
56604;BME280;42486;47.478;19.036;2023-03-26T01:48:17;99669.62;;;8.09;79.27
56604;BME280;42486;47.478;19.036;2023-03-26T01:51:27;99665.50;;;8.18;78.06
56604;BME280;42486;47.478;19.036;2023-03-26T01:54:30;99673.28;;;8.18;78.84
56604;BME280;42486;47.478;19.036;2023-03-26T01:57:40;99675.31;;;8.14;78.07
56604;BME280;42486;47.478;19.036;2023-03-26T02:00:51;99676.47;;;8.10;78.29
56604;BME280;42486;47.478;19.036;2023-03-26T02:03:58;99680.69;;;8.00;80.20
56604;BME280;42486;47.478;19.036;2023-03-26T02:07:12;99686.44;;;7.92;80.42
56604;BME280;42486;47.478;19.036;2023-03-26T02:10:26;99701.91;;;7.82;80.45
56604;BME280;42486;47.478;19.036;2023-03-26T02:13:30;99694.25;;;7.68;81.39
56604;BME280;42486;47.478;19.036;2023-03-26T02:16:33;99703.25;;;7.64;81.82
56604;BME280;42486;47.478;19.036;2023-03-26T02:19:36;99702.50;;;7.62;82.42
56604;BME280;42486;47.478;19.036;2023-03-26T02:22:43;99708.25;;;7.54;82.72
56604;BME280;42486;47.478;19.036;2023-03-26T02:25:46;99707.97;;;7.46;84.25
56604;BME280;42486;47.478;19.036;2023-03-26T02:28:49;99709.34;;;7.39;84.15
56604;BME280;42486;47.478;19.036;2023-03-26T02:31:52;99709.47;;;7.37;84.16
56604;BME280;42486;47.478;19.036;2023-03-26T02:34:54;99695.00;;;7.33;85.74
56604;BME280;42486;47.478;19.036;2023-03-26T02:37:57;99699.69;;;7.28;84.64
56604;BME280;42486;47.478;19.036;2023-03-26T02:41:01;99691.94;;;7.15;85.17
56604;BME280;42486;47.478;19.036;2023-03-26T02:44:03;99691.31;;;7.12;85.57
56604;BME280;42486;47.478;19.036;2023-03-26T02:47:07;99686.66;;;7.04;86.57
56604;BME280;42486;47.478;19.036;2023-03-26T02:50:09;99684.06;;;7.04;85.81
56604;BME280;42486;47.478;19.036;2023-03-26T02:53:13;99679.81;;;7.03;86.38
56604;BME280;42486;47.478;19.036;2023-03-26T02:56:16;99675.66;;;7.00;85.82
56604;BME280;42486;47.478;19.036;2023-03-26T02:59:18;99671.63;;;6.96;86.28
56604;BME280;42486;47.478;19.036;2023-03-26T03:02:21;99676.72;;;6.85;87.07
56604;BME280;42486;47.478;19.036;2023-03-26T03:05:25;99679.13;;;6.75;88.56
56604;BME280;42486;47.478;19.036;2023-03-26T03:08:28;99678.94;;;6.66;88.24
56604;BME280;42486;47.478;19.036;2023-03-26T03:11:32;99678.28;;;6.62;89.05
56604;BME280;42486;47.478;19.036;2023-03-26T03:14:35;99678.50;;;6.59;89.31
56604;BME280;42486;47.478;19.036;2023-03-26T03:17:39;99683.00;;;6.57;89.30
56604;BME280;42486;47.478;19.036;2023-03-26T03:20:42;99678.41;;;6.60;90.70
56604;BME280;42486;47.478;19.036;2023-03-26T03:23:46;99685.59;;;6.57;89.74
56604;BME280;42486;47.478;19.036;2023-03-26T03:26:49;99681.31;;;6.56;91.45
56604;BME280;42486;47.478;19.036;2023-03-26T03:29:56;99682.56;;;6.50;90.88
56604;BME280;42486;47.478;19.036;2023-03-26T03:33:00;99679.75;;;6.40;91.11
56604;BME280;42486;47.478;19.036;2023-03-26T03:36:03;99686.19;;;6.35;91.22
56604;BME280;42486;47.478;19.036;2023-03-26T03:39:22;99681.50;;;6.27;92.32
56604;BME280;42486;47.478;19.036;2023-03-26T03:42:25;99680.56;;;6.15;93.20
56604;BME280;42486;47.478;19.036;2023-03-26T03:45:28;99679.63;;;6.04;94.60
56604;BME280;42486;47.478;19.036;2023-03-26T03:48:31;99699.09;;;5.97;94.56
56604;BME280;42486;47.478;19.036;2023-03-26T03:51:34;99711.50;;;5.91;95.73
56604;BME280;42486;47.478;19.036;2023-03-26T03:54:37;99703.37;;;5.83;96.27
56604;BME280;42486;47.478;19.036;2023-03-26T03:57:39;99707.28;;;5.76;96.81
56604;BME280;42486;47.478;19.036;2023-03-26T04:00:41;99706.75;;;5.71;98.45
56604;BME280;42486;47.478;19.036;2023-03-26T04:03:46;99706.84;;;5.69;97.66
56604;BME280;42486;47.478;19.036;2023-03-26T04:06:49;99707.97;;;5.65;97.86
56604;BME280;42486;47.478;19.036;2023-03-26T04:09:52;99714.91;;;5.65;98.49
56604;BME280;42486;47.478;19.036;2023-03-26T04:12:55;99714.19;;;5.63;98.83
56604;BME280;42486;47.478;19.036;2023-03-26T04:15:58;99716.75;;;5.63;99.02
56604;BME280;42486;47.478;19.036;2023-03-26T04:19:01;99705.78;;;5.59;98.62
56604;BME280;42486;47.478;19.036;2023-03-26T04:22:05;99701.50;;;5.58;99.04
56604;BME280;42486;47.478;19.036;2023-03-26T04:25:08;99707.44;;;5.60;99.23
56604;BME280;42486;47.478;19.036;2023-03-26T04:28:11;99700.88;;;5.55;100.00
56604;BME280;42486;47.478;19.036;2023-03-26T04:31:18;99695.97;;;5.50;100.00
56604;BME280;42486;47.478;19.036;2023-03-26T04:34:25;99696.84;;;5.50;100.00
56604;BME280;42486;47.478;19.036;2023-03-26T04:37:31;99698.88;;;5.45;100.00
56604;BME280;42486;47.478;19.036;2023-03-26T04:40:36;99699.25;;;5.39;100.00
56604;BME280;42486;47.478;19.036;2023-03-26T04:43:40;99699.03;;;5.42;100.00
56604;BME280;42486;47.478;19.036;2023-03-26T04:46:48;99712.00;;;5.42;100.00
56604;BME280;42486;47.478;19.036;2023-03-26T04:49:53;99708.59;;;5.42;100.00
56604;BME280;42486;47.478;19.036;2023-03-26T04:52:56;99713.56;;;5.45;100.00
56604;BME280;42486;47.478;19.036;2023-03-26T04:56:08;99705.09;;;5.43;100.00
56604;BME280;42486;47.478;19.036;2023-03-26T04:59:28;99708.59;;;5.42;100.00
56604;BME280;42486;47.478;19.036;2023-03-26T05:02:38;99711.53;;;5.50;100.00
56604;BME280;42486;47.478;19.036;2023-03-26T05:05:43;99715.84;;;5.64;100.00
56604;BME280;42486;47.478;19.036;2023-03-26T05:08:45;99708.97;;;5.90;100.00
56604;BME280;42486;47.478;19.036;2023-03-26T05:11:48;99701.50;;;6.12;98.20
56604;BME280;42486;47.478;19.036;2023-03-26T05:14:52;99698.31;;;6.34;96.21
56604;BME280;42486;47.478;19.036;2023-03-26T05:17:54;99697.63;;;6.58;94.54
56604;BME280;42486;47.478;19.036;2023-03-26T05:20:57;99699.66;;;6.91;92.90
56604;BME280;42486;47.478;19.036;2023-03-26T05:24:00;99706.91;;;7.24;92.86
56604;BME280;42486;47.478;19.036;2023-03-26T05:27:03;99703.91;;;7.42;89.41
56604;BME280;42486;47.478;19.036;2023-03-26T05:30:06;99696.91;;;7.55;88.56
56604;BME280;42486;47.478;19.036;2023-03-26T05:33:09;99702.28;;;7.65;87.36
56604;BME280;42486;47.478;19.036;2023-03-26T05:36:12;99705.19;;;7.84;87.06
56604;BME280;42486;47.478;19.036;2023-03-26T05:39:16;99698.00;;;8.12;85.90
56604;BME280;42486;47.478;19.036;2023-03-26T05:42:19;99705.13;;;8.56;83.50
56604;BME280;42486;47.478;19.036;2023-03-26T05:45:21;99707.03;;;8.88;83.83
56604;BME280;42486;47.478;19.036;2023-03-26T05:48:24;99711.87;;;8.93;80.77
56604;BME280;42486;47.478;19.036;2023-03-26T05:51:27;99708.88;;;9.42;77.50
56604;BME280;42486;47.478;19.036;2023-03-26T05:54:29;99721.59;;;9.79;77.49
56604;BME280;42486;47.478;19.036;2023-03-26T05:57:32;99712.81;;;10.12;74.01
56604;BME280;42486;47.478;19.036;2023-03-26T06:00:36;99709.72;;;10.40;71.56
56604;BME280;42486;47.478;19.036;2023-03-26T06:03:39;99713.59;;;10.24;72.80
56604;BME280;42486;47.478;19.036;2023-03-26T06:06:42;99711.06;;;10.55;70.46
56604;BME280;42486;47.478;19.036;2023-03-26T06:09:46;99714.19;;;11.41;68.15
56604;BME280;42486;47.478;19.036;2023-03-26T06:12:48;99713.00;;;12.23;62.88
56604;BME280;42486;47.478;19.036;2023-03-26T06:15:51;99705.22;;;13.07;59.35
56604;BME280;42486;47.478;19.036;2023-03-26T06:18:54;99717.75;;;15.77;51.97
56604;BME280;42486;47.478;19.036;2023-03-26T06:21:58;99720.56;;;19.12;41.66
56604;BME280;42486;47.478;19.036;2023-03-26T06:25:00;99715.06;;;20.51;37.27
56604;BME280;42486;47.478;19.036;2023-03-26T06:28:03;99721.38;;;21.13;35.53
56604;BME280;42486;47.478;19.036;2023-03-26T06:31:07;99738.62;;;21.92;33.91
56604;BME280;42486;47.478;19.036;2023-03-26T06:34:10;99725.31;;;21.79;34.27
56604;BME280;42486;47.478;19.036;2023-03-26T06:37:13;99720.75;;;19.26;37.76
56604;BME280;42486;47.478;19.036;2023-03-26T06:40:16;99719.41;;;17.78;41.40
56604;BME280;42486;47.478;19.036;2023-03-26T06:43:19;99723.56;;;19.75;38.23
56604;BME280;42486;47.478;19.036;2023-03-26T06:46:22;99729.63;;;22.86;32.31
56604;BME280;42486;47.478;19.036;2023-03-26T06:49:26;99740.25;;;25.15;28.51
56604;BME280;42486;47.478;19.036;2023-03-26T06:52:29;99739.00;;;25.36;27.00
56604;BME280;42486;47.478;19.036;2023-03-26T06:55:32;99738.56;;;24.33;27.71
56604;BME280;42486;47.478;19.036;2023-03-26T06:58:34;99748.09;;;25.35;26.91
56604;BME280;42486;47.478;19.036;2023-03-26T07:01:37;99750.75;;;26.25;25.60
56604;BME280;42486;47.478;19.036;2023-03-26T07:04:40;99746.81;;;26.75;24.94
56604;BME280;42486;47.478;19.036;2023-03-26T07:07:42;99739.22;;;26.36;24.35
56604;BME280;42486;47.478;19.036;2023-03-26T07:10:47;99747.84;;;27.09;25.00
56604;BME280;42486;47.478;19.036;2023-03-26T07:13:50;99744.81;;;27.86;22.73
56604;BME280;42486;47.478;19.036;2023-03-26T07:16:52;99749.75;;;28.23;22.57
56604;BME280;42486;47.478;19.036;2023-03-26T07:19:55;99742.66;;;27.72;24.13
56604;BME280;42486;47.478;19.036;2023-03-26T07:23:00;99740.34;;;22.26;30.74
56604;BME280;42486;47.478;19.036;2023-03-26T07:26:16;99731.75;;;18.70;37.34
56604;BME280;42486;47.478;19.036;2023-03-26T07:29:26;99725.38;;;17.80;39.75
56604;BME280;42486;47.478;19.036;2023-03-26T07:32:38;99741.22;;;18.49;39.40
56604;BME280;42486;47.478;19.036;2023-03-26T07:35:58;99744.09;;;20.10;35.92
56604;BME280;42486;47.478;19.036;2023-03-26T07:42:32;99747.25;;;19.62;37.32
56604;BME280;42486;47.478;19.036;2023-03-26T07:45:38;99741.75;;;17.45;40.81
56604;BME280;42486;47.478;19.036;2023-03-26T07:48:42;99738.00;;;16.50;45.35
56604;BME280;42486;47.478;19.036;2023-03-26T07:51:46;99730.09;;;15.85;48.07
56604;BME280;42486;47.478;19.036;2023-03-26T07:54:49;99739.75;;;15.26;48.09
56604;BME280;42486;47.478;19.036;2023-03-26T07:57:57;99736.44;;;15.24;48.83
56604;BME280;42486;47.478;19.036;2023-03-26T08:01:03;99733.09;;;15.48;48.53
56604;BME280;42486;47.478;19.036;2023-03-26T08:07:32;99728.44;;;16.00;45.36
56604;BME280;42486;47.478;19.036;2023-03-26T08:17:05;99721.47;;;15.16;49.04
56604;BME280;42486;47.478;19.036;2023-03-26T08:29:59;99719.75;;;14.98;48.62
56604;BME280;42486;47.478;19.036;2023-03-26T08:36:15;99718.03;;;15.24;50.85
56604;BME280;42486;47.478;19.036;2023-03-26T08:39:17;99715.78;;;15.37;49.28
56604;BME280;42486;47.478;19.036;2023-03-26T08:42:45;99716.91;;;15.34;49.47
56604;BME280;42486;47.478;19.036;2023-03-26T08:52:18;99706.38;;;15.34;50.32
56604;BME280;42486;47.478;19.036;2023-03-26T09:12:27;99703.03;;;16.73;43.18
56604;BME280;42486;47.478;19.036;2023-03-26T09:19:29;99697.00;;;16.40;42.90
56604;BME280;42486;47.478;19.036;2023-03-26T09:25:55;99688.44;;;16.05;43.14
56604;BME280;42486;47.478;19.036;2023-03-26T09:42:14;99674.19;;;17.50;41.41
56604;BME280;42486;47.478;19.036;2023-03-26T09:54:52;99650.53;;;16.39;41.01
56604;BME280;42486;47.478;19.036;2023-03-26T10:04:30;99633.44;;;15.85;41.41
56604;BME280;42486;47.478;19.036;2023-03-26T10:07:40;99626.22;;;15.96;42.56
56604;BME280;42486;47.478;19.036;2023-03-26T10:17:20;99610.09;;;15.82;44.15
56604;BME280;42486;47.478;19.036;2023-03-26T10:20:41;99601.84;;;15.85;45.00
56604;BME280;42486;47.478;19.036;2023-03-26T10:27:07;99619.50;;;15.26;47.39
56604;BME280;42486;47.478;19.036;2023-03-26T10:30:31;99631.88;;;14.83;50.81
56604;BME280;42486;47.478;19.036;2023-03-26T10:36:50;99657.06;;;11.85;83.47
56604;BME280;42486;47.478;19.036;2023-03-26T10:46:33;99603.50;;;10.40;100.00
56604;BME280;42486;47.478;19.036;2023-03-26T10:53:05;99578.81;;;11.14;100.00
56604;BME280;42486;47.478;19.036;2023-03-26T10:56:16;99576.50;;;11.59;97.33
56604;BME280;42486;47.478;19.036;2023-03-26T10:59:23;99567.72;;;12.27;89.07
56604;BME280;42486;47.478;19.036;2023-03-26T11:02:37;99564.75;;;12.77;86.45
56604;BME280;42486;47.478;19.036;2023-03-26T11:05:59;99563.78;;;12.78;78.23
56604;BME280;42486;47.478;19.036;2023-03-26T11:15:29;99541.94;;;12.87;89.43
56604;BME280;42486;47.478;19.036;2023-03-26T11:34:38;99490.91;;;13.17;84.65
56604;BME280;42486;47.478;19.036;2023-03-26T11:37:41;99499.56;;;13.28;79.07
56604;BME280;42486;47.478;19.036;2023-03-26T11:40:44;99492.56;;;13.18;75.23
56604;BME280;42486;47.478;19.036;2023-03-26T11:44:02;99485.38;;;13.20;80.54
56604;BME280;42486;47.478;19.036;2023-03-26T11:47:06;99471.66;;;13.44;77.00
56604;BME280;42486;47.478;19.036;2023-03-26T11:50:24;99477.09;;;14.03;75.25
56604;BME280;42486;47.478;19.036;2023-03-26T11:53:28;99470.06;;;14.54;77.09
56604;BME280;42486;47.478;19.036;2023-03-26T11:56:32;99465.38;;;14.74;69.03
56604;BME280;42486;47.478;19.036;2023-03-26T11:59:40;99456.19;;;14.87;72.63
56604;BME280;42486;47.478;19.036;2023-03-26T12:02:57;99444.84;;;15.27;61.52
56604;BME280;42486;47.478;19.036;2023-03-26T12:06:00;99432.53;;;15.03;64.46
56604;BME280;42486;47.478;19.036;2023-03-26T12:09:03;99435.31;;;14.77;64.33
56604;BME280;42486;47.478;19.036;2023-03-26T12:12:18;99414.59;;;14.82;58.37
56604;BME280;42486;47.478;19.036;2023-03-26T12:15:20;99405.22;;;14.88;61.92
56604;BME280;42486;47.478;19.036;2023-03-26T12:18:24;99409.16;;;15.25;62.57
56604;BME280;42486;47.478;19.036;2023-03-26T12:21:27;99403.72;;;15.43;60.55
56604;BME280;42486;47.478;19.036;2023-03-26T12:24:33;99400.22;;;15.75;59.46
56604;BME280;42486;47.478;19.036;2023-03-26T12:27:39;99391.66;;;16.12;54.26
56604;BME280;42486;47.478;19.036;2023-03-26T12:30:57;99388.25;;;16.81;55.66
56604;BME280;42486;47.478;19.036;2023-03-26T12:34:12;99377.97;;;17.09;53.80
56604;BME280;42486;47.478;19.036;2023-03-26T12:37:36;99377.94;;;16.94;56.14
56604;BME280;42486;47.478;19.036;2023-03-26T12:40:38;99364.72;;;16.79;50.83
56604;BME280;42486;47.478;19.036;2023-03-26T12:43:44;99356.28;;;16.99;52.09
56604;BME280;42486;47.478;19.036;2023-03-26T12:47:12;99351.28;;;16.89;50.05
56604;BME280;42486;47.478;19.036;2023-03-26T12:57:24;99331.00;;;16.89;43.83
56604;BME280;42486;47.478;19.036;2023-03-26T13:03:39;99339.97;;;16.57;43.21
56604;BME280;42486;47.478;19.036;2023-03-26T13:06:50;99335.69;;;16.33;43.71
56604;BME280;42486;47.478;19.036;2023-03-26T13:23:03;99300.50;;;16.87;43.13
56604;BME280;42486;47.478;19.036;2023-03-26T13:26:17;99287.97;;;17.04;41.24
56604;BME280;42486;47.478;19.036;2023-03-26T13:29:36;99285.06;;;17.13;42.21
56604;BME280;42486;47.478;19.036;2023-03-26T13:38:54;99267.97;;;17.60;40.79
56604;BME280;42486;47.478;19.036;2023-03-26T13:45:32;99260.16;;;17.67;38.26
56604;BME280;42486;47.478;19.036;2023-03-26T13:48:46;99262.75;;;17.46;39.97
56604;BME280;42486;47.478;19.036;2023-03-26T13:51:53;99243.56;;;17.22;39.10
56604;BME280;42486;47.478;19.036;2023-03-26T14:01:22;99234.53;;;17.02;40.65
56604;BME280;42486;47.478;19.036;2023-03-26T14:04:39;99233.34;;;17.19;42.50
56604;BME280;42486;47.478;19.036;2023-03-26T14:07:46;99216.53;;;17.05;37.84
56604;BME280;42486;47.478;19.036;2023-03-26T14:10:54;99218.69;;;17.02;39.35
56604;BME280;42486;47.478;19.036;2023-03-26T14:14:41;99208.06;;;17.10;36.79
56604;BME280;42486;47.478;19.036;2023-03-26T14:17:26;99211.44;;;17.19;38.20
56604;BME280;42486;47.478;19.036;2023-03-26T14:20:48;99206.97;;;17.04;37.68
56604;BME280;42486;47.478;19.036;2023-03-26T14:30:53;99197.06;;;17.06;37.44
56604;BME280;42486;47.478;19.036;2023-03-26T14:34:18;99196.94;;;17.14;36.74
56604;BME280;42486;47.478;19.036;2023-03-26T14:53:10;99172.59;;;16.98;34.19
56604;BME280;42486;47.478;19.036;2023-03-26T14:56:20;99168.00;;;16.77;34.11
56604;BME280;42486;47.478;19.036;2023-03-26T15:06:39;99137.72;;;16.43;33.73
56604;BME280;42486;47.478;19.036;2023-03-26T15:16:43;99120.72;;;16.31;35.43
56604;BME280;42486;47.478;19.036;2023-03-26T15:29:46;99106.59;;;16.08;37.51
56604;BME280;42486;47.478;19.036;2023-03-26T15:43:12;99084.78;;;16.00;37.18
56604;BME280;42486;47.478;19.036;2023-03-26T15:49:40;99090.78;;;16.08;36.96
56604;BME280;42486;47.478;19.036;2023-03-26T15:56:14;99080.72;;;16.12;38.64
56604;BME280;42486;47.478;19.036;2023-03-26T15:59:28;99088.06;;;16.02;39.00
56604;BME280;42486;47.478;19.036;2023-03-26T16:03:26;99073.50;;;15.91;40.04
56604;BME280;42486;47.478;19.036;2023-03-26T16:09:26;99060.84;;;15.72;39.67
56604;BME280;42486;47.478;19.036;2023-03-26T16:12:45;99054.19;;;15.53;40.64
56604;BME280;42486;47.478;19.036;2023-03-26T16:16:14;99043.13;;;15.43;40.62
56604;BME280;42486;47.478;19.036;2023-03-26T16:22:37;99034.41;;;15.19;42.22
56604;BME280;42486;47.478;19.036;2023-03-26T16:25:54;99028.25;;;15.04;43.12
56604;BME280;42486;47.478;19.036;2023-03-26T16:29:01;99015.31;;;14.94;41.42
56604;BME280;42486;47.478;19.036;2023-03-26T16:38:15;99008.13;;;14.48;43.13
56604;BME280;42486;47.478;19.036;2023-03-26T16:41:23;99007.88;;;14.35;43.14
56604;BME280;42486;47.478;19.036;2023-03-26T16:44:44;99016.75;;;14.34;43.95
56604;BME280;42486;47.478;19.036;2023-03-26T16:48:35;99006.91;;;14.28;42.59
56604;BME280;42486;47.478;19.036;2023-03-26T16:51:30;99011.56;;;14.18;43.81
56604;BME280;42486;47.478;19.036;2023-03-26T17:01:07;99015.72;;;13.79;44.40
56604;BME280;42486;47.478;19.036;2023-03-26T17:04:13;99013.94;;;13.63;44.26
56604;BME280;42486;47.478;19.036;2023-03-26T17:29:59;99009.00;;;13.19;46.96
56604;BME280;42486;47.478;19.036;2023-03-26T17:33:09;99012.59;;;13.18;48.13
56604;BME280;42486;47.478;19.036;2023-03-26T17:36:35;99013.59;;;13.17;47.66
56604;BME280;42486;47.478;19.036;2023-03-26T17:42:59;99003.59;;;13.21;47.58
56604;BME280;42486;47.478;19.036;2023-03-26T17:46:03;99007.56;;;13.33;48.58
56604;BME280;42486;47.478;19.036;2023-03-26T17:52:16;99002.16;;;13.35;49.28
56604;BME280;42486;47.478;19.036;2023-03-26T17:55:26;99002.44;;;13.23;48.53
56604;BME280;42486;47.478;19.036;2023-03-26T17:58:36;99011.78;;;13.18;48.29
56604;BME280;42486;47.478;19.036;2023-03-26T18:01:43;99006.53;;;13.10;48.95
56604;BME280;42486;47.478;19.036;2023-03-26T18:04:50;98994.41;;;13.00;49.49
56604;BME280;42486;47.478;19.036;2023-03-26T18:17:40;99006.53;;;12.93;50.54
56604;BME280;42486;47.478;19.036;2023-03-26T18:20:44;98995.37;;;12.91;51.67
56604;BME280;42486;47.478;19.036;2023-03-26T18:23:48;99001.75;;;12.89;52.25
56604;BME280;42486;47.478;19.036;2023-03-26T18:26:55;99000.28;;;12.86;52.06
56604;BME280;42486;47.478;19.036;2023-03-26T18:30:00;99000.75;;;12.82;53.06
56604;BME280;42486;47.478;19.036;2023-03-26T18:33:13;98995.81;;;12.78;51.91
56604;BME280;42486;47.478;19.036;2023-03-26T18:36:16;98992.72;;;12.75;53.29
56604;BME280;42486;47.478;19.036;2023-03-26T18:39:20;98990.56;;;12.70;53.04
56604;BME280;42486;47.478;19.036;2023-03-26T18:42:23;98981.91;;;12.70;53.09
56604;BME280;42486;47.478;19.036;2023-03-26T18:45:36;98977.00;;;12.83;54.57
56604;BME280;42486;47.478;19.036;2023-03-26T18:48:39;98975.38;;;12.74;54.39
56604;BME280;42486;47.478;19.036;2023-03-26T18:51:42;98975.84;;;12.77;52.58
56604;BME280;42486;47.478;19.036;2023-03-26T18:54:57;98970.75;;;12.76;53.11
56604;BME280;42486;47.478;19.036;2023-03-26T18:58:06;98953.88;;;12.70;52.64
56604;BME280;42486;47.478;19.036;2023-03-26T19:01:11;98934.72;;;12.70;53.50
56604;BME280;42486;47.478;19.036;2023-03-26T19:04:26;98943.06;;;12.65;52.77
56604;BME280;42486;47.478;19.036;2023-03-26T19:07:31;98939.28;;;12.60;53.57
56604;BME280;42486;47.478;19.036;2023-03-26T19:10:36;98936.66;;;12.51;52.71
56604;BME280;42486;47.478;19.036;2023-03-26T19:13:39;98925.50;;;12.41;56.85
56604;BME280;42486;47.478;19.036;2023-03-26T19:16:51;98927.25;;;12.24;58.38
56604;BME280;42486;47.478;19.036;2023-03-26T19:19:57;98917.69;;;12.07;59.44
56604;BME280;42486;47.478;19.036;2023-03-26T19:22:59;98918.94;;;11.86;62.98
56604;BME280;42486;47.478;19.036;2023-03-26T19:26:03;98915.56;;;11.76;66.13
56604;BME280;42486;47.478;19.036;2023-03-26T19:29:07;98922.72;;;11.66;67.83
56604;BME280;42486;47.478;19.036;2023-03-26T19:32:46;98916.41;;;11.77;60.70
56604;BME280;42486;47.478;19.036;2023-03-26T19:35:41;98901.84;;;11.82;60.76
56604;BME280;42486;47.478;19.036;2023-03-26T19:41:50;98893.75;;;11.94;67.13
56604;BME280;42486;47.478;19.036;2023-03-26T19:44:53;98883.13;;;11.95;67.57
56604;BME280;42486;47.478;19.036;2023-03-26T19:47:57;98873.47;;;11.87;66.78
56604;BME280;42486;47.478;19.036;2023-03-26T19:51:20;98868.66;;;11.83;67.01
56604;BME280;42486;47.478;19.036;2023-03-26T19:54:23;98863.59;;;11.81;69.74
56604;BME280;42486;47.478;19.036;2023-03-26T19:57:29;98860.66;;;11.84;69.09
56604;BME280;42486;47.478;19.036;2023-03-26T20:00:33;98849.84;;;11.79;70.14
56604;BME280;42486;47.478;19.036;2023-03-26T20:03:36;98842.13;;;11.78;68.94
56604;BME280;42486;47.478;19.036;2023-03-26T20:06:40;98836.28;;;11.76;65.97
56604;BME280;42486;47.478;19.036;2023-03-26T20:09:45;98832.00;;;11.75;68.93
56604;BME280;42486;47.478;19.036;2023-03-26T20:12:53;98827.09;;;11.72;68.63
56604;BME280;42486;47.478;19.036;2023-03-26T20:16:14;98817.09;;;11.67;68.10
56604;BME280;42486;47.478;19.036;2023-03-26T20:19:19;98807.94;;;11.63;67.30
56604;BME280;42486;47.478;19.036;2023-03-26T20:22:22;98803.69;;;11.70;69.22
56604;BME280;42486;47.478;19.036;2023-03-26T20:25:27;98798.63;;;11.68;65.19
56604;BME280;42486;47.478;19.036;2023-03-26T20:28:32;98785.69;;;11.67;63.58
56604;BME280;42486;47.478;19.036;2023-03-26T20:31:48;98785.06;;;11.65;64.91
56604;BME280;42486;47.478;19.036;2023-03-26T20:34:51;98775.56;;;11.64;65.06
56604;BME280;42486;47.478;19.036;2023-03-26T20:37:53;98772.78;;;11.65;65.84
56604;BME280;42486;47.478;19.036;2023-03-26T20:40:56;98774.53;;;11.57;62.74
56604;BME280;42486;47.478;19.036;2023-03-26T20:43:59;98770.16;;;11.57;63.19
56604;BME280;42486;47.478;19.036;2023-03-26T20:47:02;98766.19;;;11.53;63.38
56604;BME280;42486;47.478;19.036;2023-03-26T20:50:05;98770.28;;;11.56;65.71
56604;BME280;42486;47.478;19.036;2023-03-26T20:53:11;98756.41;;;11.55;62.59
56604;BME280;42486;47.478;19.036;2023-03-26T20:56:16;98761.16;;;11.60;64.11
56604;BME280;42486;47.478;19.036;2023-03-26T20:59:20;98755.41;;;11.56;65.18
56604;BME280;42486;47.478;19.036;2023-03-26T21:02:23;98755.59;;;11.55;63.96
56604;BME280;42486;47.478;19.036;2023-03-26T21:05:26;98747.22;;;11.51;63.30
56604;BME280;42486;47.478;19.036;2023-03-26T21:08:30;98741.72;;;11.62;66.72
56604;BME280;42486;47.478;19.036;2023-03-26T21:14:42;98738.09;;;11.55;64.78
56604;BME280;42486;47.478;19.036;2023-03-26T21:17:45;98743.16;;;11.57;64.75
56604;BME280;42486;47.478;19.036;2023-03-26T21:20:52;98733.19;;;11.52;62.81
56604;BME280;42486;47.478;19.036;2023-03-26T21:24:09;98740.06;;;11.61;64.27
56604;BME280;42486;47.478;19.036;2023-03-26T21:30:21;98761.97;;;11.52;64.91
56604;BME280;42486;47.478;19.036;2023-03-26T21:33:25;98766.66;;;11.49;64.31
56604;BME280;42486;47.478;19.036;2023-03-26T21:36:28;98774.22;;;11.52;65.20